createdAt,value
2023-02-22T00:02:10.578Z,4.10
2023-02-22T00:04:39.569Z,4.20
2023-02-22T00:07:07.188Z,4.10
2023-02-22T00:09:34.060Z,4.10
2023-02-22T00:12:01.252Z,4.10
2023-02-22T00:14:28.442Z,4.00
2023-02-22T00:16:59.527Z,4.00
2023-02-22T00:19:28.008Z,4.00
2023-02-22T00:21:54.882Z,4.00
2023-02-22T00:24:24.441Z,4.00
2023-02-22T00:26:55.399Z,4.10
2023-02-22T00:29:23.888Z,4.10
2023-02-22T00:31:50.798Z,4.10
2023-02-22T00:34:17.667Z,4.20
2023-02-22T00:36:49.055Z,4.20
2023-02-22T00:39:16.470Z,4.20
2023-02-22T00:41:43.660Z,4.20
2023-02-22T00:44:10.984Z,4.20
2023-02-22T00:46:38.201Z,4.20
2023-02-22T00:49:05.197Z,4.30
2023-02-22T00:51:33.813Z,4.40
2023-02-22T00:54:00.829Z,4.50
2023-02-22T00:56:27.751Z,4.50
2023-02-22T00:58:54.537Z,4.50
2023-02-22T01:01:21.385Z,4.50
2023-02-22T01:03:48.308Z,4.40
2023-02-22T01:06:15.274Z,4.40
2023-02-22T01:08:45.686Z,4.30
2023-02-22T01:11:15.571Z,4.20
2023-02-22T01:13:42.661Z,4.10
2023-02-22T01:16:09.470Z,4.10
2023-02-22T01:18:37.256Z,4.10
2023-02-22T01:21:05.768Z,4.00
2023-02-22T01:23:33.216Z,3.90
2023-02-22T01:26:00.010Z,3.90
2023-02-22T01:28:26.786Z,3.80
2023-02-22T01:30:56.220Z,3.70
2023-02-22T01:33:23.394Z,3.60
2023-02-22T01:35:51.215Z,3.50
2023-02-22T01:38:18.200Z,3.50
2023-02-22T01:40:49.694Z,3.60
2023-02-22T01:43:29.647Z,3.70
2023-02-22T01:46:03.308Z,3.80
2023-02-22T01:48:38.577Z,3.80
2023-02-22T01:51:20.108Z,3.90
2023-02-22T01:53:54.162Z,3.90
2023-02-22T01:56:23.710Z,4.00
2023-02-22T01:58:58.370Z,4.10
2023-02-22T02:01:28.326Z,4.10
2023-02-22T02:03:59.646Z,4.20
2023-02-22T02:06:31.521Z,4.20
2023-02-22T02:09:28.571Z,4.10
2023-02-22T02:11:56.120Z,4.10
2023-02-22T02:14:22.894Z,4.10
2023-02-22T02:16:53.315Z,4.10
2023-02-22T02:19:45.642Z,4.20
2023-02-22T02:22:26.976Z,4.30
2023-02-22T02:25:40.696Z,4.50
2023-02-22T02:28:25.276Z,4.60
2023-02-22T02:31:21.384Z,4.60
2023-02-22T02:34:12.075Z,4.70
2023-02-22T02:37:01.003Z,4.80
2023-02-22T02:39:51.169Z,5.00
2023-02-22T02:42:23.466Z,5.10
2023-02-22T02:45:02.612Z,5.10
2023-02-22T02:47:35.671Z,5.10
2023-02-22T02:50:09.196Z,5.10
2023-02-22T02:52:37.439Z,5.10
2023-02-22T02:55:06.996Z,5.10
2023-02-22T02:57:33.792Z,5.00
2023-02-22T03:00:00.605Z,5.00
2023-02-22T03:02:55.104Z,5.00
2023-02-22T03:05:31.815Z,5.00
2023-02-22T03:08:31.605Z,5.00
2023-02-22T03:11:17.432Z,5.10
2023-02-22T03:14:12.057Z,5.10
2023-02-22T03:17:04.613Z,5.10
2023-02-22T03:19:38.554Z,5.10
2023-02-22T03:22:16.492Z,5.10
2023-02-22T03:24:58.886Z,5.10
2023-02-22T03:27:49.108Z,5.00
2023-02-22T03:30:31.966Z,5.00
2023-02-22T03:33:12.392Z,5.00
2023-02-22T03:35:48.868Z,4.90
2023-02-22T03:38:19.068Z,4.90
2023-02-22T03:40:51.031Z,4.90
2023-02-22T03:43:25.923Z,5.00
2023-02-22T03:45:53.358Z,5.00
2023-02-22T03:48:41.710Z,5.00
2023-02-22T03:51:08.591Z,4.90
2023-02-22T03:53:37.143Z,4.90
2023-02-22T03:56:08.486Z,4.70
2023-02-22T03:58:37.713Z,4.60
2023-02-22T04:01:05.005Z,4.50
2023-02-22T04:03:31.850Z,4.50
2023-02-22T04:05:58.638Z,4.40
2023-02-22T04:08:25.447Z,4.40
2023-02-22T04:10:52.516Z,4.40
2023-02-22T04:13:19.389Z,4.30
2023-02-22T04:15:46.275Z,4.30
2023-02-22T04:18:14.066Z,4.30
2023-02-22T04:20:40.902Z,4.10
2023-02-22T04:23:07.719Z,4.00
2023-02-22T04:25:34.500Z,3.90
2023-02-22T04:28:01.322Z,3.70
2023-02-22T04:30:30.074Z,3.60
2023-02-22T04:32:57.411Z,3.50
2023-02-22T04:35:24.408Z,3.40
2023-02-22T04:37:51.286Z,3.30
2023-02-22T04:40:18.506Z,3.30
2023-02-22T04:42:45.286Z,3.30
2023-02-22T04:45:13.286Z,3.30
2023-02-22T04:47:40.235Z,3.30
2023-02-22T04:50:11.022Z,3.30
2023-02-22T04:52:37.843Z,3.30
2023-02-22T04:55:05.320Z,3.10
2023-02-22T04:57:32.508Z,3.00
2023-02-22T04:59:59.503Z,3.00
2023-02-22T05:02:26.473Z,2.90
2023-02-22T05:04:53.414Z,2.80
2023-02-22T05:07:20.216Z,2.70
2023-02-22T05:09:47.000Z,2.70
2023-02-22T05:12:13.817Z,2.70
2023-02-22T05:14:41.485Z,2.50
2023-02-22T05:17:08.282Z,2.40
2023-02-22T05:19:35.123Z,2.30
2023-02-22T05:22:01.972Z,2.30
2023-02-22T05:24:28.720Z,2.40
2023-02-22T05:26:55.529Z,2.40
2023-02-22T05:29:22.328Z,2.40
2023-02-22T05:31:49.243Z,2.40
2023-02-22T05:34:16.569Z,2.50
2023-02-22T05:36:43.373Z,2.50
2023-02-22T05:39:10.185Z,2.50
2023-02-22T05:41:36.931Z,2.60
2023-02-22T05:44:03.978Z,2.60
2023-02-22T05:46:30.906Z,2.70
2023-02-22T05:48:57.816Z,2.60
2023-02-22T05:51:24.843Z,2.70
2023-02-22T05:53:52.514Z,2.60
2023-02-22T05:56:28.641Z,2.60
2023-02-22T05:58:55.761Z,2.60
2023-02-22T06:01:23.075Z,2.60
2023-02-22T06:03:51.676Z,2.40
2023-02-22T06:06:22.652Z,2.30
2023-02-22T06:08:49.864Z,2.20
2023-02-22T06:11:17.162Z,2.20
2023-02-22T06:13:51.530Z,2.20
2023-02-22T06:16:19.500Z,2.20
2023-02-22T06:18:46.825Z,2.20
2023-02-22T06:21:13.699Z,2.20
2023-02-22T06:23:40.470Z,2.10
2023-02-22T06:26:07.318Z,2.10
2023-02-22T06:28:34.113Z,2.10
2023-02-22T06:31:00.919Z,2.20
2023-02-22T06:33:27.719Z,2.30
2023-02-22T06:35:54.521Z,2.30
2023-02-22T06:38:24.667Z,2.50
2023-02-22T06:40:52.100Z,2.60
2023-02-22T06:43:19.279Z,2.70
2023-02-22T06:45:46.555Z,2.80
2023-02-22T06:48:13.909Z,2.90
2023-02-22T06:50:40.707Z,3.10
2023-02-22T06:53:07.549Z,3.30
2023-02-22T06:55:35.613Z,3.40
2023-02-22T06:58:04.858Z,3.50
2023-02-22T07:00:32.639Z,3.70
2023-02-22T07:03:00.521Z,3.80
2023-02-22T07:05:28.504Z,3.90
2023-02-22T07:08:02.780Z,4.00
2023-02-22T07:10:31.522Z,4.20
2023-02-22T07:12:58.424Z,4.40
2023-02-22T07:15:27.775Z,4.50
2023-02-22T07:17:55.088Z,4.70
2023-02-22T07:20:24.354Z,4.90
2023-02-22T07:22:51.506Z,5.20
2023-02-22T07:25:19.649Z,5.40
2023-02-22T07:27:47.376Z,5.60
2023-02-22T07:30:25.908Z,5.80
2023-02-22T07:32:55.098Z,5.90
2023-02-22T07:35:36.583Z,6.00
2023-02-22T07:38:06.104Z,6.20
2023-02-22T07:40:32.881Z,6.40
2023-02-22T07:43:16.692Z,6.40
2023-02-22T07:45:44.467Z,6.60
2023-02-22T07:48:12.603Z,6.70
2023-02-22T07:50:40.391Z,6.90
2023-02-22T07:53:12.847Z,7.20
2023-02-22T07:55:39.691Z,7.50
2023-02-22T07:58:08.870Z,7.80
2023-02-22T08:00:40.434Z,8.20
2023-02-22T08:03:13.453Z,8.60
2023-02-22T08:05:45.514Z,8.90
2023-02-22T08:08:12.644Z,9.10
2023-02-22T08:10:39.415Z,9.40
2023-02-22T08:13:06.374Z,9.20
2023-02-22T08:15:36.490Z,9.10
2023-02-22T08:18:09.094Z,9.30
2023-02-22T08:20:37.359Z,9.30
2023-02-22T08:23:05.665Z,9.80
2023-02-22T08:25:33.034Z,10.10
2023-02-22T08:28:10.758Z,10.20
2023-02-22T08:30:40.539Z,10.50
2023-02-22T08:33:07.714Z,10.90
2023-02-22T08:35:34.772Z,11.30
2023-02-22T08:38:05.968Z,11.40
2023-02-22T08:40:37.324Z,11.70
2023-02-22T08:43:04.674Z,11.80
2023-02-22T08:45:31.524Z,11.60
2023-02-22T08:47:59.417Z,12.00
2023-02-22T08:50:32.007Z,12.50
2023-02-22T08:53:01.986Z,12.90
2023-02-22T08:55:32.895Z,12.30
2023-02-22T08:58:02.798Z,12.40
2023-02-22T09:00:33.209Z,13.20
2023-02-22T09:03:05.788Z,14.10
2023-02-22T09:05:33.510Z,14.60
2023-02-22T09:08:01.418Z,15.00
2023-02-22T09:10:32.160Z,15.40
2023-02-22T09:13:00.785Z,15.80
2023-02-22T09:15:28.590Z,15.70
2023-02-22T09:17:55.912Z,15.70
2023-02-22T09:20:24.597Z,16.00
2023-02-22T09:22:52.672Z,15.50
2023-02-22T09:25:20.974Z,15.10
2023-02-22T09:27:52.368Z,15.10
2023-02-22T09:30:31.959Z,15.20
2023-02-22T09:33:03.586Z,15.20
2023-02-22T09:35:31.026Z,14.70
2023-02-22T09:38:00.125Z,14.50
2023-02-22T09:40:30.803Z,14.20
2023-02-22T09:43:37.889Z,14.60
2023-02-22T09:46:37.698Z,14.60
2023-02-22T09:49:13.832Z,13.80
2023-02-22T09:51:52.561Z,14.20
2023-02-22T09:54:35.867Z,14.50
2023-02-22T09:57:08.634Z,14.90
2023-02-22T09:59:57.449Z,15.30
2023-02-22T10:02:31.212Z,15.10
2023-02-22T10:05:00.946Z,15.60
2023-02-22T10:07:47.482Z,16.20
2023-02-22T10:10:23.183Z,16.00
2023-02-22T10:13:22.151Z,16.00
2023-02-22T10:16:28.215Z,16.20
2023-02-22T10:19:22.418Z,16.40
2023-02-22T10:22:11.314Z,16.60
2023-02-22T10:25:27.154Z,16.70
2023-02-22T10:28:19.985Z,17.10
2023-02-22T10:30:56.430Z,17.40
2023-02-22T10:33:32.353Z,17.50
2023-02-22T10:35:59.227Z,16.50
2023-02-22T10:38:32.687Z,16.20
2023-02-22T10:41:09.207Z,16.70
2023-02-22T10:43:40.992Z,17.40
2023-02-22T10:46:13.453Z,18.00
2023-02-22T10:48:42.920Z,18.80
2023-02-22T10:51:10.455Z,19.50
2023-02-22T10:53:38.587Z,19.90
2023-02-22T10:56:21.272Z,20.00
2023-02-22T10:59:05.768Z,19.50
2023-02-22T11:01:32.585Z,19.50
2023-02-22T11:04:12.229Z,19.20
2023-02-22T11:06:42.390Z,19.30
2023-02-22T11:09:24.495Z,19.10
2023-02-22T11:12:16.802Z,19.50
2023-02-22T11:14:43.590Z,19.20
2023-02-22T11:17:17.630Z,19.40
2023-02-22T11:19:49.342Z,19.30
2023-02-22T11:22:41.368Z,19.60
2023-02-22T11:25:08.846Z,20.10
2023-02-22T11:27:47.006Z,21.00
2023-02-22T11:30:32.686Z,20.90
2023-02-22T11:33:15.901Z,21.00
2023-02-22T11:36:05.881Z,21.40
2023-02-22T11:38:36.828Z,22.20
2023-02-22T11:41:22.875Z,22.50
2023-02-22T11:43:51.754Z,22.60
2023-02-22T11:46:30.863Z,23.20
2023-02-22T11:49:17.796Z,23.10
2023-02-22T11:52:28.152Z,23.40
2023-02-22T11:55:36.364Z,23.40
2023-02-22T11:58:33.324Z,23.10
2023-02-22T12:01:07.784Z,23.20
2023-02-22T12:04:22.447Z,22.50
2023-02-22T12:07:21.758Z,21.90
2023-02-22T12:10:18.271Z,21.50
2023-02-22T12:13:19.446Z,21.20
2023-02-22T12:16:32.623Z,20.70
2023-02-22T12:19:11.448Z,20.70
2023-02-22T12:21:43.772Z,20.90
2023-02-22T12:24:17.091Z,20.90
2023-02-22T12:26:50.681Z,21.50
2023-02-22T12:30:07.201Z,22.20
2023-02-22T12:32:47.469Z,23.00
2023-02-22T12:35:28.570Z,23.30
2023-02-22T12:38:13.038Z,23.60
2023-02-22T12:41:29.775Z,23.80
2023-02-22T12:44:14.618Z,23.10
2023-02-22T12:46:47.917Z,22.60
2023-02-22T12:49:38.641Z,22.70
2023-02-22T12:52:43.150Z,23.10
2023-02-22T12:55:17.027Z,24.10
2023-02-22T12:57:57.125Z,25.00
2023-02-22T13:00:37.946Z,25.80
2023-02-22T13:03:39.557Z,26.80
2023-02-22T13:06:49.557Z,27.90
2023-02-22T13:09:39.625Z,28.50
2023-02-22T13:13:04.682Z,28.60
2023-02-22T13:15:52.836Z,28.20
2023-02-22T13:18:42.639Z,26.20
2023-02-22T13:21:37.037Z,26.50
2023-02-22T13:24:18.532Z,29.00
2023-02-22T13:27:00.115Z,30.70
2023-02-22T13:29:34.666Z,30.40
2023-02-22T13:32:28.514Z,29.60
2023-02-22T13:35:48.885Z,28.90
2023-02-22T13:38:57.952Z,27.80
2023-02-22T13:41:48.266Z,27.40
2023-02-22T13:44:52.294Z,27.30
2023-02-22T13:47:50.023Z,26.70
2023-02-22T13:50:49.697Z,26.00
2023-02-22T13:53:28.397Z,26.50
2023-02-22T13:55:59.322Z,27.10
2023-02-22T13:58:26.671Z,27.70
2023-02-22T14:00:55.605Z,28.60
2023-02-22T14:03:23.986Z,29.30
2023-02-22T14:05:53.821Z,29.40
2023-02-22T14:08:21.705Z,29.70
2023-02-22T14:11:00.573Z,29.70
2023-02-22T14:13:33.358Z,29.40
2023-02-22T14:16:00.194Z,28.30
2023-02-22T14:18:41.734Z,27.30
2023-02-22T14:21:12.536Z,26.10
2023-02-22T14:23:43.537Z,24.90
2023-02-22T14:26:22.806Z,24.30
2023-02-22T14:29:10.352Z,23.20
2023-02-22T14:31:43.421Z,22.20
2023-02-22T14:34:34.914Z,21.80
2023-02-22T14:37:19.899Z,21.10
2023-02-22T14:39:52.734Z,20.90
2023-02-22T14:42:28.251Z,21.20
2023-02-22T14:45:20.008Z,22.20
2023-02-22T14:48:27.980Z,23.20
2023-02-22T14:51:11.764Z,24.20
2023-02-22T14:53:57.428Z,23.20
2023-02-22T14:56:39.465Z,22.40
2023-02-22T14:59:24.053Z,21.60
2023-02-22T15:02:12.783Z,21.30
2023-02-22T15:04:43.771Z,20.90
2023-02-22T15:07:29.103Z,20.20
2023-02-22T15:10:23.869Z,19.60
2023-02-22T15:13:11.380Z,19.20
2023-02-22T15:15:54.901Z,19.00
2023-02-22T15:18:30.094Z,18.70
2023-02-22T15:21:06.932Z,18.50
2023-02-22T15:23:54.210Z,18.40
2023-02-22T15:26:31.105Z,18.30
2023-02-22T15:28:59.753Z,18.60
2023-02-22T15:31:39.758Z,19.10
2023-02-22T15:34:18.978Z,19.20
2023-02-22T15:36:51.200Z,19.00
2023-02-22T15:39:29.722Z,18.60
2023-02-22T15:42:20.872Z,18.40
2023-02-22T15:44:52.344Z,18.10
2023-02-22T15:47:18.989Z,17.90
2023-02-22T15:49:46.773Z,17.50
2023-02-22T15:52:31.834Z,17.40
2023-02-22T15:54:58.669Z,17.30
2023-02-22T15:57:27.363Z,17.20
2023-02-22T15:59:57.259Z,17.20
2023-02-22T16:02:37.298Z,17.10
2023-02-22T16:05:09.909Z,16.90
2023-02-22T16:07:50.506Z,16.70
2023-02-22T16:10:33.454Z,16.60
2023-02-22T16:13:31.484Z,16.40
2023-02-22T16:16:05.919Z,16.20
2023-02-22T16:18:36.078Z,16.00
2023-02-22T16:21:13.917Z,15.80
2023-02-22T16:24:10.289Z,15.70
2023-02-22T16:26:41.309Z,15.60
2023-02-22T16:29:09.586Z,15.50
2023-02-22T16:31:39.995Z,15.30
2023-02-22T16:34:08.420Z,14.90
2023-02-22T16:36:45.026Z,14.60
2023-02-22T16:39:21.322Z,14.40
2023-02-22T16:41:48.612Z,14.30
2023-02-22T16:44:16.886Z,14.10
2023-02-22T16:46:44.051Z,14.00
2023-02-22T16:49:12.499Z,13.80
2023-02-22T16:51:49.908Z,13.60
2023-02-22T16:54:28.431Z,13.50
2023-02-22T16:56:57.072Z,13.30
2023-02-22T16:59:23.922Z,13.20
2023-02-22T17:01:50.748Z,13.00
2023-02-22T17:04:24.141Z,12.90
2023-02-22T17:06:51.437Z,12.70
2023-02-22T17:09:22.140Z,12.50
2023-02-22T17:11:51.544Z,12.40
2023-02-22T17:14:23.207Z,12.30
2023-02-22T17:16:53.384Z,12.20
2023-02-22T17:19:24.352Z,12.10
2023-02-22T17:21:51.176Z,12.10
2023-02-22T17:24:22.938Z,12.00
2023-02-22T17:26:53.031Z,11.90
2023-02-22T17:29:20.616Z,11.70
2023-02-22T17:31:48.881Z,11.60
2023-02-22T17:34:15.895Z,11.50
2023-02-22T17:36:43.100Z,11.40
2023-02-22T17:39:10.551Z,11.30
2023-02-22T17:41:40.348Z,11.30
2023-02-22T17:44:07.733Z,11.20
2023-02-22T17:46:36.637Z,11.20
2023-02-22T17:49:03.542Z,11.10
2023-02-22T17:51:30.401Z,11.00
2023-02-22T17:53:57.396Z,11.00
2023-02-22T17:56:24.499Z,10.90
2023-02-22T17:58:54.898Z,10.70
2023-02-22T18:01:29.363Z,10.50
2023-02-22T18:04:02.705Z,10.40
2023-02-22T18:06:32.549Z,10.40
2023-02-22T18:09:00.907Z,10.30
2023-02-22T18:11:32.394Z,10.30
2023-02-22T18:13:59.358Z,10.00
2023-02-22T18:16:26.813Z,9.80
2023-02-22T18:18:56.841Z,9.60
2023-02-22T18:21:24.144Z,9.60
2023-02-22T18:23:50.970Z,9.60
2023-02-22T18:26:21.697Z,9.70
2023-02-22T18:28:49.169Z,9.60
2023-02-22T18:31:19.475Z,9.70
2023-02-22T18:33:49.952Z,9.70
2023-02-22T18:36:22.542Z,9.70
2023-02-22T18:38:52.816Z,9.70
2023-02-22T18:41:25.199Z,9.70
2023-02-22T18:43:55.035Z,9.70
2023-02-22T18:46:23.818Z,9.50
2023-02-22T18:48:55.045Z,9.50
2023-02-22T18:51:23.216Z,9.50
2023-02-22T18:53:54.736Z,9.50
2023-02-22T18:56:22.222Z,9.40
2023-02-22T18:58:58.640Z,9.40
2023-02-22T19:01:25.891Z,9.30
2023-02-22T19:03:53.237Z,9.30
2023-02-22T19:06:22.488Z,9.30
2023-02-22T19:08:50.754Z,9.40
2023-02-22T19:11:22.141Z,9.40
2023-02-22T19:13:52.102Z,9.40
2023-02-22T19:16:21.753Z,9.40
2023-02-22T19:18:52.322Z,9.50
2023-02-22T19:21:20.310Z,9.50
2023-02-22T19:23:48.288Z,9.60
2023-02-22T19:26:23.891Z,9.50
2023-02-22T19:28:53.438Z,9.50
2023-02-22T19:31:22.512Z,9.50
2023-02-22T19:33:52.507Z,9.40
2023-02-22T19:36:23.014Z,9.30
2023-02-22T19:38:50.038Z,9.10
2023-02-22T19:41:21.768Z,9.10
2023-02-22T19:43:51.485Z,9.00
2023-02-22T19:46:18.884Z,8.90
2023-02-22T19:48:45.744Z,8.90
2023-02-22T19:51:16.750Z,8.80
2023-02-22T19:53:45.045Z,8.70
2023-02-22T19:56:18.072Z,8.80
2023-02-22T19:58:48.262Z,8.80
2023-02-22T20:01:29.031Z,8.70
2023-02-22T20:04:08.317Z,8.70
2023-02-22T20:06:42.278Z,8.70
2023-02-22T20:09:14.239Z,8.60
2023-02-22T20:11:41.079Z,8.40
2023-02-22T20:14:07.942Z,8.30
2023-02-22T20:16:35.509Z,8.10
2023-02-22T20:19:02.361Z,8.00
2023-02-22T20:21:34.625Z,7.90
2023-02-22T20:24:06.683Z,7.80
2023-02-22T20:26:36.639Z,7.70
2023-02-22T20:29:06.142Z,7.60
2023-02-22T20:31:33.341Z,7.40
2023-02-22T20:34:02.339Z,7.20
2023-02-22T20:36:30.423Z,7.00
2023-02-22T20:38:59.929Z,7.10
2023-02-22T20:41:32.747Z,7.10
2023-02-22T20:44:01.711Z,7.10
2023-02-22T20:46:35.549Z,7.20
2023-02-22T20:49:07.193Z,7.20
2023-02-22T20:51:34.988Z,7.20
2023-02-22T20:54:02.004Z,7.20
2023-02-22T20:56:32.272Z,7.20
2023-02-22T20:59:01.976Z,7.20
2023-02-22T21:01:30.022Z,7.20
2023-02-22T21:04:06.222Z,7.10
2023-02-22T21:06:35.548Z,7.00
2023-02-22T21:09:07.155Z,7.00
2023-02-22T21:11:35.142Z,7.00
2023-02-22T21:14:02.432Z,6.90
2023-02-22T21:16:33.532Z,6.90
2023-02-22T21:19:04.103Z,6.90
2023-02-22T21:21:31.862Z,6.80
2023-02-22T21:24:01.557Z,6.80
2023-02-22T21:26:31.595Z,6.90
2023-02-22T21:29:01.149Z,6.70
2023-02-22T21:31:28.770Z,6.70
2023-02-22T21:33:58.667Z,6.60
2023-02-22T21:36:26.658Z,6.50
2023-02-22T21:38:57.708Z,6.40
2023-02-22T21:41:31.336Z,6.40
2023-02-22T21:43:59.864Z,6.40
2023-02-22T21:46:29.132Z,6.40
2023-02-22T21:48:58.372Z,6.40
2023-02-22T21:51:31.325Z,6.40
2023-02-22T21:54:04.734Z,6.40
2023-02-22T21:56:36.371Z,6.40
2023-02-22T21:59:18.750Z,6.40
2023-02-22T22:01:49.908Z,6.40
2023-02-22T22:04:23.848Z,6.30
2023-02-22T22:06:53.282Z,6.00
2023-02-22T22:09:23.290Z,5.80
2023-02-22T22:12:01.209Z,5.60
2023-02-22T22:14:28.293Z,5.60
2023-02-22T22:16:58.546Z,5.70
2023-02-22T22:19:30.272Z,5.80
2023-02-22T22:22:00.799Z,6.00
2023-02-22T22:24:31.948Z,6.10
2023-02-22T22:27:03.540Z,6.20
2023-02-22T22:29:34.151Z,6.30
2023-02-22T22:32:01.361Z,6.40
2023-02-22T22:34:29.535Z,6.40
2023-02-22T22:36:58.086Z,6.50
2023-02-22T22:39:26.753Z,6.50
2023-02-22T22:41:53.668Z,6.60
2023-02-22T22:44:22.297Z,6.60
2023-02-22T22:46:53.440Z,6.50
2023-02-22T22:49:20.542Z,6.50
2023-02-22T22:51:47.468Z,6.50
2023-02-22T22:54:14.658Z,6.50
2023-02-22T22:56:41.612Z,6.40
2023-02-22T22:59:10.594Z,6.30
2023-02-22T23:01:44.188Z,6.30
2023-02-22T23:04:16.806Z,6.30
2023-02-22T23:06:51.890Z,6.30
2023-02-22T23:09:22.157Z,6.40
2023-02-22T23:12:01.876Z,6.50
2023-02-22T23:14:31.049Z,6.50
2023-02-22T23:17:05.681Z,6.50
2023-02-22T23:19:35.199Z,6.50
2023-02-22T23:22:05.407Z,6.50
2023-02-22T23:24:37.645Z,6.50
2023-02-22T23:27:10.693Z,6.40
2023-02-22T23:29:40.816Z,6.40
2023-02-22T23:32:09.689Z,6.30
2023-02-22T23:34:38.504Z,6.30
2023-02-22T23:37:09.749Z,6.30
2023-02-22T23:39:37.004Z,6.30
2023-02-22T23:42:03.901Z,6.30
2023-02-22T23:44:30.881Z,6.40
2023-02-22T23:46:57.842Z,6.40
2023-02-22T23:49:35.872Z,6.40
2023-02-22T23:52:05.072Z,6.40
2023-02-22T23:54:36.339Z,6.40
2023-02-22T23:57:04.582Z,6.40
2023-02-22T23:59:33.155Z,6.50
